Stephenville, Texas
Current Conditions -  °F | °C
As of 3:35 PM on Wednesday 26 Nov 2014 (Local Time) from KSEP Reporting Station
Clear Clear  
Wind Chill: 63°   Ceiling: Unl
Heat Index: 63°   Visibility: 10mi
Dew Point: 31°   Wind: 10mph
Humidity: 30%   Direction: 360°N
Pressure: 30.23"   Gusts: NA
Location:  32.22°N, 98.2°W
Report Text: KSEP 262135Z AUTO 36009KT 10SM CLR 17/M01 A3023 RMK AO2 T01721006
Loading
Personal Weather Stations






























Interactive Weather Map New forecast layout! Learn more

10-Day Weather Forecast

Advertisements
Track Severe Weather on mobile